sensor_id;sensor_type;location;lat;lon;timestamp;pressure;altitude;pressure_sealevel;temperature;humidity
74334;BME280;62753;40.394;-80.022;2022-12-19T00:01:54;97819.07;;;0.09;39.11
74334;BME280;62753;40.394;-80.022;2022-12-19T00:04:19;97822.52;;;0.72;38.10
74334;BME280;62753;40.394;-80.022;2022-12-19T00:06:45;97824.51;;;-0.06;39.20
74334;BME280;62753;40.394;-80.022;2022-12-19T00:09:11;97822.68;;;-0.23;39.36
74334;BME280;62753;40.394;-80.022;2022-12-19T00:11:36;97830.63;;;-0.73;40.80
74334;BME280;62753;40.394;-80.022;2022-12-19T00:14:01;97837.29;;;-0.65;40.96
74334;BME280;62753;40.394;-80.022;2022-12-19T00:16:28;97835.58;;;-0.34;41.60
74334;BME280;62753;40.394;-80.022;2022-12-19T00:18:54;97837.33;;;-0.60;40.58
74334;BME280;62753;40.394;-80.022;2022-12-19T00:21:20;97839.48;;;-0.87;41.25
74334;BME280;62753;40.394;-80.022;2022-12-19T00:23:44;97844.70;;;-1.45;43.52
74334;BME280;62753;40.394;-80.022;2022-12-19T00:26:14;97849.79;;;-0.36;41.81
74334;BME280;62753;40.394;-80.022;2022-12-19T00:28:35;97846.33;;;-1.55;43.16
74334;BME280;62753;40.394;-80.022;2022-12-19T00:31:01;97853.05;;;-1.22;43.34
74334;BME280;62753;40.394;-80.022;2022-12-19T00:33:25;97853.81;;;-0.23;41.13
74334;BME280;62753;40.394;-80.022;2022-12-19T00:35:56;97855.92;;;-0.57;41.42
74334;BME280;62753;40.394;-80.022;2022-12-19T00:38:17;97860.75;;;-1.07;42.15
74334;BME280;62753;40.394;-80.022;2022-12-19T00:40:42;97861.17;;;-0.95;42.78
74334;BME280;62753;40.394;-80.022;2022-12-19T00:43:08;97858.82;;;-0.95;43.48
74334;BME280;62753;40.394;-80.022;2022-12-19T00:45:37;97862.79;;;-0.12;42.01
74334;BME280;62753;40.394;-80.022;2022-12-19T00:47:59;97866.79;;;-0.66;41.58
74334;BME280;62753;40.394;-80.022;2022-12-19T00:50:24;97865.71;;;-1.20;43.53
74334;BME280;62753;40.394;-80.022;2022-12-19T00:52:49;97862.16;;;0.29;40.12
74334;BME280;62753;40.394;-80.022;2022-12-19T00:55:15;97863.50;;;-0.09;40.31
74334;BME280;62753;40.394;-80.022;2022-12-19T00:57:40;97869.72;;;0.48;39.44
74334;BME280;62753;40.394;-80.022;2022-12-19T01:00:06;97870.63;;;0.79;38.44
74334;BME280;62753;40.394;-80.022;2022-12-19T01:02:31;97871.69;;;0.47;39.02
74334;BME280;62753;40.394;-80.022;2022-12-19T01:04:56;97872.60;;;1.52;37.29
74334;BME280;62753;40.394;-80.022;2022-12-19T01:07:21;97873.38;;;0.66;38.39
74334;BME280;62753;40.394;-80.022;2022-12-19T01:09:47;97876.15;;;0.86;38.17
74334;BME280;62753;40.394;-80.022;2022-12-19T01:12:13;97874.08;;;1.40;37.55
74334;BME280;62753;40.394;-80.022;2022-12-19T01:14:38;97877.14;;;1.03;38.22
74334;BME280;62753;40.394;-80.022;2022-12-19T01:17:03;97876.50;;;0.29;39.53
74334;BME280;62753;40.394;-80.022;2022-12-19T01:19:29;97869.86;;;1.75;37.42
74334;BME280;62753;40.394;-80.022;2022-12-19T01:21:55;97866.17;;;1.28;37.83
74334;BME280;62753;40.394;-80.022;2022-12-19T01:24:20;97869.12;;;1.89;37.07
74334;BME280;62753;40.394;-80.022;2022-12-19T01:26:46;97869.47;;;1.98;37.08
74334;BME280;62753;40.394;-80.022;2022-12-19T01:29:11;97867.78;;;1.17;38.07
74334;BME280;62753;40.394;-80.022;2022-12-19T01:31:36;97869.01;;;1.41;38.77
74334;BME280;62753;40.394;-80.022;2022-12-19T01:34:02;97874.63;;;-0.06;40.55
74334;BME280;62753;40.394;-80.022;2022-12-19T01:36:28;97872.38;;;0.65;40.35
74334;BME280;62753;40.394;-80.022;2022-12-19T01:38:54;97873.53;;;-0.23;41.43
74334;BME280;62753;40.394;-80.022;2022-12-19T01:41:18;97872.99;;;0.79;40.40
74334;BME280;62753;40.394;-80.022;2022-12-19T01:43:55;97870.74;;;0.64;40.76
74334;BME280;62753;40.394;-80.022;2022-12-19T01:46:11;97872.96;;;0.83;40.71
74334;BME280;62753;40.394;-80.022;2022-12-19T01:48:38;97871.70;;;0.96;40.03
74334;BME280;62753;40.394;-80.022;2022-12-19T01:51:02;97878.44;;;0.96;40.64
74334;BME280;62753;40.394;-80.022;2022-12-19T01:53:28;97879.95;;;1.22;39.25
74334;BME280;62753;40.394;-80.022;2022-12-19T01:55:51;97883.88;;;-0.21;42.67
74334;BME280;62753;40.394;-80.022;2022-12-19T01:58:17;97880.99;;;0.56;41.06
74334;BME280;62753;40.394;-80.022;2022-12-19T02:00:43;97889.56;;;-0.53;43.67
74334;BME280;62753;40.394;-80.022;2022-12-19T02:03:13;97889.48;;;-1.13;45.74
74334;BME280;62753;40.394;-80.022;2022-12-19T02:05:33;97889.24;;;-0.42;44.36
74334;BME280;62753;40.394;-80.022;2022-12-19T02:08:00;97891.84;;;0.68;42.58
74334;BME280;62753;40.394;-80.022;2022-12-19T02:10:24;97882.36;;;0.31;42.35
74334;BME280;62753;40.394;-80.022;2022-12-19T02:12:50;97883.92;;;0.60;41.88
74334;BME280;62753;40.394;-80.022;2022-12-19T02:15:16;97887.83;;;0.20;43.63
74334;BME280;62753;40.394;-80.022;2022-12-19T02:17:51;97892.97;;;0.01;43.08
74334;BME280;62753;40.394;-80.022;2022-12-19T02:20:16;97885.18;;;0.49;42.06
74334;BME280;62753;40.394;-80.022;2022-12-19T02:22:39;97886.47;;;0.94;41.92
74334;BME280;62753;40.394;-80.022;2022-12-19T02:27:37;97892.62;;;1.02;40.87
74334;BME280;62753;40.394;-80.022;2022-12-19T02:30:01;97897.90;;;-0.14;43.53
74334;BME280;62753;40.394;-80.022;2022-12-19T02:32:17;97902.63;;;-1.39;45.07
74334;BME280;62753;40.394;-80.022;2022-12-19T02:34:44;97912.03;;;-0.21;45.18
74334;BME280;62753;40.394;-80.022;2022-12-19T02:37:08;97910.74;;;-0.24;43.75
74334;BME280;62753;40.394;-80.022;2022-12-19T02:39:33;97912.68;;;0.10;44.02
74334;BME280;62753;40.394;-80.022;2022-12-19T02:41:56;97914.38;;;0.37;42.23
74334;BME280;62753;40.394;-80.022;2022-12-19T02:44:22;97921.15;;;0.12;42.87
74334;BME280;62753;40.394;-80.022;2022-12-19T02:46:46;97918.21;;;0.60;42.32
74334;BME280;62753;40.394;-80.022;2022-12-19T02:49:11;97920.68;;;-0.26;43.42
74334;BME280;62753;40.394;-80.022;2022-12-19T02:51:36;97921.32;;;0.13;42.75
74334;BME280;62753;40.394;-80.022;2022-12-19T02:54:01;97914.87;;;0.49;41.66
74334;BME280;62753;40.394;-80.022;2022-12-19T02:56:37;97921.66;;;-0.90;43.95
74334;BME280;62753;40.394;-80.022;2022-12-19T02:59:05;97920.69;;;0.07;42.92
74334;BME280;62753;40.394;-80.022;2022-12-19T03:01:28;97930.16;;;0.19;42.44
74334;BME280;62753;40.394;-80.022;2022-12-19T03:03:49;97923.12;;;0.88;41.16
74334;BME280;62753;40.394;-80.022;2022-12-19T03:06:12;97930.61;;;-0.67;44.07
74334;BME280;62753;40.394;-80.022;2022-12-19T03:08:40;97939.50;;;0.03;44.02
74334;BME280;62753;40.394;-80.022;2022-12-19T03:11:01;97937.19;;;-0.41;44.46
74334;BME280;62753;40.394;-80.022;2022-12-19T03:13:27;97934.34;;;0.07;42.58
74334;BME280;62753;40.394;-80.022;2022-12-19T03:15:51;97936.33;;;0.09;42.61
74334;BME280;62753;40.394;-80.022;2022-12-19T03:18:17;97939.15;;;0.08;42.93
74334;BME280;62753;40.394;-80.022;2022-12-19T03:20:46;97940.58;;;-0.84;43.41
74334;BME280;62753;40.394;-80.022;2022-12-19T03:23:07;97942.59;;;-0.20;43.02
74334;BME280;62753;40.394;-80.022;2022-12-19T03:25:33;97941.56;;;-0.19;42.57
74334;BME280;62753;40.394;-80.022;2022-12-19T03:28:01;97939.64;;;-0.83;44.57
74334;BME280;62753;40.394;-80.022;2022-12-19T03:30:23;97944.27;;;0.10;43.45
74334;BME280;62753;40.394;-80.022;2022-12-19T03:32:49;97943.77;;;0.27;41.51
74334;BME280;62753;40.394;-80.022;2022-12-19T03:35:17;97954.06;;;-1.06;45.10
74334;BME280;62753;40.394;-80.022;2022-12-19T03:37:41;97955.69;;;-0.91;44.43
74334;BME280;62753;40.394;-80.022;2022-12-19T03:40:09;97957.26;;;-0.17;43.61
74334;BME280;62753;40.394;-80.022;2022-12-19T03:42:31;97957.77;;;-0.78;45.38
74334;BME280;62753;40.394;-80.022;2022-12-19T03:44:57;97958.61;;;-1.06;45.52
74334;BME280;62753;40.394;-80.022;2022-12-19T03:47:23;97966.93;;;-0.24;43.83
74334;BME280;62753;40.394;-80.022;2022-12-19T03:49:47;97965.24;;;-0.63;43.52
74334;BME280;62753;40.394;-80.022;2022-12-19T03:52:20;97969.17;;;-0.34;43.27
74334;BME280;62753;40.394;-80.022;2022-12-19T03:54:40;97978.46;;;0.10;43.16
74334;BME280;62753;40.394;-80.022;2022-12-19T03:57:06;97979.59;;;-0.85;43.97
74334;BME280;62753;40.394;-80.022;2022-12-19T03:59:33;97968.48;;;-1.24;45.02
74334;BME280;62753;40.394;-80.022;2022-12-19T04:01:54;97975.77;;;0.48;42.58
74334;BME280;62753;40.394;-80.022;2022-12-19T04:04:21;97972.83;;;-0.63;43.31
74334;BME280;62753;40.394;-80.022;2022-12-19T04:06:45;97969.97;;;-1.08;44.18
74334;BME280;62753;40.394;-80.022;2022-12-19T04:09:11;97969.26;;;0.11;42.54
74334;BME280;62753;40.394;-80.022;2022-12-19T04:11:40;97962.32;;;0.60;40.03
74334;BME280;62753;40.394;-80.022;2022-12-19T04:14:05;97970.63;;;0.04;39.84
74334;BME280;62753;40.394;-80.022;2022-12-19T04:16:31;97973.40;;;0.52;40.53
74334;BME280;62753;40.394;-80.022;2022-12-19T04:18:57;97969.47;;;0.24;40.80
74334;BME280;62753;40.394;-80.022;2022-12-19T04:21:22;97977.38;;;0.13;40.50
74334;BME280;62753;40.394;-80.022;2022-12-19T04:23:45;97987.13;;;0.77;39.67
74334;BME280;62753;40.394;-80.022;2022-12-19T04:26:10;97984.44;;;-0.24;40.68
74334;BME280;62753;40.394;-80.022;2022-12-19T04:28:39;97986.74;;;-1.75;43.96
74334;BME280;62753;40.394;-80.022;2022-12-19T04:31:01;97989.21;;;-0.69;42.90
74334;BME280;62753;40.394;-80.022;2022-12-19T04:33:26;97989.02;;;-1.10;43.57
74334;BME280;62753;40.394;-80.022;2022-12-19T04:35:52;97989.39;;;-0.32;42.30
74334;BME280;62753;40.394;-80.022;2022-12-19T04:38:17;97990.22;;;-0.63;41.46
74334;BME280;62753;40.394;-80.022;2022-12-19T04:40:43;97994.02;;;-0.81;42.61
74334;BME280;62753;40.394;-80.022;2022-12-19T04:43:09;97994.58;;;-0.43;42.59
74334;BME280;62753;40.394;-80.022;2022-12-19T04:45:35;97998.34;;;-0.26;42.33
74334;BME280;62753;40.394;-80.022;2022-12-19T04:48:00;98007.67;;;-0.92;42.35
74334;BME280;62753;40.394;-80.022;2022-12-19T04:50:26;98006.48;;;0.06;41.19
74334;BME280;62753;40.394;-80.022;2022-12-19T04:52:51;98001.15;;;0.93;38.70
74334;BME280;62753;40.394;-80.022;2022-12-19T04:55:17;98004.64;;;-1.54;42.73
74334;BME280;62753;40.394;-80.022;2022-12-19T04:57:43;97998.12;;;-0.32;41.20
74334;BME280;62753;40.394;-80.022;2022-12-19T05:00:09;97997.29;;;-0.49;41.83
74334;BME280;62753;40.394;-80.022;2022-12-19T05:02:34;97993.95;;;-0.51;41.45
74334;BME280;62753;40.394;-80.022;2022-12-19T05:04:59;97996.28;;;-0.05;40.80
74334;BME280;62753;40.394;-80.022;2022-12-19T05:07:25;97995.60;;;-0.35;40.39
74334;BME280;62753;40.394;-80.022;2022-12-19T05:09:51;97990.27;;;-0.54;41.15
74334;BME280;62753;40.394;-80.022;2022-12-19T05:12:16;97989.37;;;0.95;39.57
74334;BME280;62753;40.394;-80.022;2022-12-19T05:14:42;97989.77;;;-0.26;40.75
74334;BME280;62753;40.394;-80.022;2022-12-19T05:17:08;97992.23;;;0.33;39.62
74334;BME280;62753;40.394;-80.022;2022-12-19T05:19:33;97989.35;;;0.45;40.08
74334;BME280;62753;40.394;-80.022;2022-12-19T05:21:58;97987.29;;;0.97;38.84
74334;BME280;62753;40.394;-80.022;2022-12-19T05:24:24;97987.04;;;1.12;38.18
74334;BME280;62753;40.394;-80.022;2022-12-19T05:26:50;97984.95;;;1.13;37.61
74334;BME280;62753;40.394;-80.022;2022-12-19T05:29:16;97991.40;;;0.51;38.79
74334;BME280;62753;40.394;-80.022;2022-12-19T05:31:41;97994.76;;;2.09;37.01
74334;BME280;62753;40.394;-80.022;2022-12-19T05:34:07;97986.61;;;2.64;35.95
74334;BME280;62753;40.394;-80.022;2022-12-19T05:36:31;97984.28;;;2.55;36.07
74334;BME280;62753;40.394;-80.022;2022-12-19T05:38:57;97985.29;;;3.03;34.69
74334;BME280;62753;40.394;-80.022;2022-12-19T05:41:22;97990.69;;;3.21;34.38
74334;BME280;62753;40.394;-80.022;2022-12-19T05:43:51;97990.22;;;1.90;36.74
74334;BME280;62753;40.394;-80.022;2022-12-19T05:46:13;97989.20;;;2.32;36.00
74334;BME280;62753;40.394;-80.022;2022-12-19T05:48:38;97984.18;;;2.99;34.82
74334;BME280;62753;40.394;-80.022;2022-12-19T05:51:04;97988.55;;;1.20;38.18
74334;BME280;62753;40.394;-80.022;2022-12-19T05:53:29;97991.16;;;2.54;36.52
74334;BME280;62753;40.394;-80.022;2022-12-19T05:56:03;97990.62;;;2.55;36.01
74334;BME280;62753;40.394;-80.022;2022-12-19T05:58:20;97991.72;;;1.90;36.72
74334;BME280;62753;40.394;-80.022;2022-12-19T06:00:45;97984.00;;;3.14;35.85
74334;BME280;62753;40.394;-80.022;2022-12-19T06:03:11;97986.59;;;1.48;37.74
74334;BME280;62753;40.394;-80.022;2022-12-19T06:05:37;97982.43;;;1.34;37.75
74334;BME280;62753;40.394;-80.022;2022-12-19T06:08:02;97982.91;;;1.80;37.55
74334;BME280;62753;40.394;-80.022;2022-12-19T06:10:27;97986.46;;;1.86;37.73
74334;BME280;62753;40.394;-80.022;2022-12-19T06:12:53;97990.93;;;1.30;38.98
74334;BME280;62753;40.394;-80.022;2022-12-19T06:15:19;97995.65;;;1.58;39.01
74334;BME280;62753;40.394;-80.022;2022-12-19T06:17:44;97994.62;;;1.06;38.64
74334;BME280;62753;40.394;-80.022;2022-12-19T06:20:10;97994.12;;;1.41;38.40
74334;BME280;62753;40.394;-80.022;2022-12-19T06:22:35;97999.40;;;0.68;39.82
74334;BME280;62753;40.394;-80.022;2022-12-19T06:25:00;97997.00;;;1.84;38.50
74334;BME280;62753;40.394;-80.022;2022-12-19T06:27:26;97999.58;;;2.18;37.05
74334;BME280;62753;40.394;-80.022;2022-12-19T06:29:52;98000.58;;;2.38;37.11
74334;BME280;62753;40.394;-80.022;2022-12-19T06:32:18;98000.06;;;2.09;37.40
74334;BME280;62753;40.394;-80.022;2022-12-19T06:34:43;98002.34;;;2.06;36.88
74334;BME280;62753;40.394;-80.022;2022-12-19T06:37:10;98004.92;;;1.38;38.62
74334;BME280;62753;40.394;-80.022;2022-12-19T06:39:34;98001.34;;;2.32;36.71
74334;BME280;62753;40.394;-80.022;2022-12-19T06:42:00;98005.84;;;2.27;37.37
74334;BME280;62753;40.394;-80.022;2022-12-19T06:44:25;98010.92;;;1.23;37.86
74334;BME280;62753;40.394;-80.022;2022-12-19T06:46:52;98007.14;;;1.17;38.23
74334;BME280;62753;40.394;-80.022;2022-12-19T06:49:16;98005.58;;;1.50;38.24
74334;BME280;62753;40.394;-80.022;2022-12-19T06:51:42;98012.01;;;2.15;38.14
74334;BME280;62753;40.394;-80.022;2022-12-19T06:54:09;98011.08;;;1.81;38.05
74334;BME280;62753;40.394;-80.022;2022-12-19T06:56:34;98009.82;;;1.55;37.95
74334;BME280;62753;40.394;-80.022;2022-12-19T06:58:58;98014.26;;;2.11;37.05
74334;BME280;62753;40.394;-80.022;2022-12-19T07:01:30;98010.47;;;1.04;38.66
74334;BME280;62753;40.394;-80.022;2022-12-19T07:03:49;98010.97;;;2.30;37.07
74334;BME280;62753;40.394;-80.022;2022-12-19T07:06:15;98015.24;;;1.66;38.03
74334;BME280;62753;40.394;-80.022;2022-12-19T07:08:40;98017.08;;;1.05;38.79
74334;BME280;62753;40.394;-80.022;2022-12-19T07:11:06;98025.02;;;0.53;38.80
74334;BME280;62753;40.394;-80.022;2022-12-19T07:13:31;98032.87;;;0.26;41.08
74334;BME280;62753;40.394;-80.022;2022-12-19T07:15:58;98035.49;;;0.67;39.46
74334;BME280;62753;40.394;-80.022;2022-12-19T07:18:22;98032.60;;;1.45;38.14
74334;BME280;62753;40.394;-80.022;2022-12-19T07:20:47;98037.87;;;2.48;36.69
74334;BME280;62753;40.394;-80.022;2022-12-19T07:23:15;98044.00;;;2.07;36.58
74334;BME280;62753;40.394;-80.022;2022-12-19T07:25:38;98042.27;;;2.14;36.68
74334;BME280;62753;40.394;-80.022;2022-12-19T07:28:03;98043.79;;;1.55;38.07
74334;BME280;62753;40.394;-80.022;2022-12-19T07:30:29;98056.21;;;0.32;40.30
74334;BME280;62753;40.394;-80.022;2022-12-19T07:32:54;98055.57;;;1.08;38.91
74334;BME280;62753;40.394;-80.022;2022-12-19T07:35:20;98055.47;;;1.51;38.11
74334;BME280;62753;40.394;-80.022;2022-12-19T07:37:46;98054.63;;;1.37;37.92
74334;BME280;62753;40.394;-80.022;2022-12-19T07:40:14;98052.91;;;1.22;38.49
74334;BME280;62753;40.394;-80.022;2022-12-19T07:42:37;98058.69;;;0.68;38.93
74334;BME280;62753;40.394;-80.022;2022-12-19T07:45:02;98058.22;;;2.06;37.37
74334;BME280;62753;40.394;-80.022;2022-12-19T07:47:27;98061.97;;;1.62;37.69
74334;BME280;62753;40.394;-80.022;2022-12-19T07:49:53;98059.86;;;0.71;38.55
74334;BME280;62753;40.394;-80.022;2022-12-19T07:52:19;98069.24;;;0.89;39.18
74334;BME280;62753;40.394;-80.022;2022-12-19T07:54:44;98059.50;;;1.46;38.34
74334;BME280;62753;40.394;-80.022;2022-12-19T07:57:09;98058.70;;;1.61;37.80
74334;BME280;62753;40.394;-80.022;2022-12-19T07:59:34;98062.16;;;1.72;37.93
74334;BME280;62753;40.394;-80.022;2022-12-19T08:02:00;98068.65;;;0.22;39.04
74334;BME280;62753;40.394;-80.022;2022-12-19T08:04:26;98069.72;;;0.69;39.92
74334;BME280;62753;40.394;-80.022;2022-12-19T08:06:51;98066.20;;;-0.27;41.16
74334;BME280;62753;40.394;-80.022;2022-12-19T08:09:17;98073.45;;;-0.38;41.74
74334;BME280;62753;40.394;-80.022;2022-12-19T08:11:42;98075.28;;;0.05;41.40
74334;BME280;62753;40.394;-80.022;2022-12-19T08:14:07;98073.82;;;0.55;40.77
74334;BME280;62753;40.394;-80.022;2022-12-19T08:16:33;98073.37;;;0.04;40.33
74334;BME280;62753;40.394;-80.022;2022-12-19T08:18:58;98078.12;;;-0.58;42.69
74334;BME280;62753;40.394;-80.022;2022-12-19T08:21:24;98078.44;;;0.05;42.10
74334;BME280;62753;40.394;-80.022;2022-12-19T08:23:49;98083.71;;;-0.50;42.64
74334;BME280;62753;40.394;-80.022;2022-12-19T08:26:16;98078.37;;;-0.03;41.29
74334;BME280;62753;40.394;-80.022;2022-12-19T08:28:40;98080.20;;;-1.96;45.86
74334;BME280;62753;40.394;-80.022;2022-12-19T08:31:07;98081.00;;;-0.81;44.11
74334;BME280;62753;40.394;-80.022;2022-12-19T08:33:31;98077.84;;;-0.92;43.22
74334;BME280;62753;40.394;-80.022;2022-12-19T08:35:56;98086.74;;;-1.06;44.84
74334;BME280;62753;40.394;-80.022;2022-12-19T08:38:22;98083.04;;;-1.11;44.30
74334;BME280;62753;40.394;-80.022;2022-12-19T08:40:52;98088.08;;;0.15;42.56
74334;BME280;62753;40.394;-80.022;2022-12-19T08:43:13;98084.51;;;-0.30;42.23
74334;BME280;62753;40.394;-80.022;2022-12-19T08:45:38;98091.16;;;-0.23;41.80
74334;BME280;62753;40.394;-80.022;2022-12-19T08:48:04;98090.79;;;-0.78;42.72
74334;BME280;62753;40.394;-80.022;2022-12-19T08:50:29;98088.91;;;-1.34;43.81
74334;BME280;62753;40.394;-80.022;2022-12-19T08:52:54;98089.44;;;-0.34;42.29
74334;BME280;62753;40.394;-80.022;2022-12-19T08:55:20;98096.26;;;-1.09;43.03
74334;BME280;62753;40.394;-80.022;2022-12-19T08:57:45;98090.43;;;-1.27;42.90
74334;BME280;62753;40.394;-80.022;2022-12-19T09:00:12;98093.43;;;-0.32;42.29
74334;BME280;62753;40.394;-80.022;2022-12-19T09:02:36;98097.49;;;-1.40;43.58
74334;BME280;62753;40.394;-80.022;2022-12-19T09:05:02;98097.61;;;-0.53;43.01
74334;BME280;62753;40.394;-80.022;2022-12-19T09:07:28;98092.04;;;-0.26;42.12
74334;BME280;62753;40.394;-80.022;2022-12-19T09:09:53;98094.78;;;-0.23;41.30
74334;BME280;62753;40.394;-80.022;2022-12-19T09:12:19;98115.57;;;-1.41;43.66
74334;BME280;62753;40.394;-80.022;2022-12-19T09:14:45;98104.18;;;-1.30;44.14
74334;BME280;62753;40.394;-80.022;2022-12-19T09:17:10;98103.60;;;-0.36;42.45
74334;BME280;62753;40.394;-80.022;2022-12-19T09:22:01;98107.29;;;0.01;41.01
74334;BME280;62753;40.394;-80.022;2022-12-19T09:24:27;98105.66;;;0.24;40.88
74334;BME280;62753;40.394;-80.022;2022-12-19T09:26:52;98117.31;;;0.86;39.20
74334;BME280;62753;40.394;-80.022;2022-12-19T09:29:18;98118.36;;;1.08;38.83
74334;BME280;62753;40.394;-80.022;2022-12-19T09:31:44;98116.44;;;0.29;40.03
74334;BME280;62753;40.394;-80.022;2022-12-19T09:34:09;98117.81;;;-0.15;40.76
74334;BME280;62753;40.394;-80.022;2022-12-19T09:36:35;98114.73;;;0.35;39.90
74334;BME280;62753;40.394;-80.022;2022-12-19T09:39:00;98116.83;;;-0.50;40.99
74334;BME280;62753;40.394;-80.022;2022-12-19T09:41:38;98120.39;;;-0.44;41.40
74334;BME280;62753;40.394;-80.022;2022-12-19T09:44:03;98123.32;;;-0.93;43.37
74334;BME280;62753;40.394;-80.022;2022-12-19T09:46:18;98124.54;;;-0.56;42.85
74334;BME280;62753;40.394;-80.022;2022-12-19T09:48:42;98122.94;;;0.15;39.92
74334;BME280;62753;40.394;-80.022;2022-12-19T09:51:12;98129.68;;;0.78;39.13
74334;BME280;62753;40.394;-80.022;2022-12-19T09:53:41;98127.83;;;0.36;39.39
74334;BME280;62753;40.394;-80.022;2022-12-19T09:56:00;98130.77;;;-0.12;39.47
74334;BME280;62753;40.394;-80.022;2022-12-19T09:58:30;98129.29;;;0.35;39.45
74334;BME280;62753;40.394;-80.022;2022-12-19T10:00:53;98130.26;;;-0.02;40.55
74334;BME280;62753;40.394;-80.022;2022-12-19T10:03:23;98131.34;;;0.31;39.64
74334;BME280;62753;40.394;-80.022;2022-12-19T10:05:43;98134.97;;;0.52;38.50
74334;BME280;62753;40.394;-80.022;2022-12-19T10:08:15;98136.63;;;0.88;38.27
74334;BME280;62753;40.394;-80.022;2022-12-19T10:10:39;98130.96;;;1.29;38.00
74334;BME280;62753;40.394;-80.022;2022-12-19T10:13:06;98135.55;;;0.78;38.02
74334;BME280;62753;40.394;-80.022;2022-12-19T10:15:27;98130.18;;;-0.59;40.34
74334;BME280;62753;40.394;-80.022;2022-12-19T10:18:00;98139.16;;;-0.72;41.02
74334;BME280;62753;40.394;-80.022;2022-12-19T10:20:18;98137.13;;;0.13;39.52
74334;BME280;62753;40.394;-80.022;2022-12-19T10:22:46;98135.93;;;-0.09;40.94
74334;BME280;62753;40.394;-80.022;2022-12-19T10:25:18;98143.24;;;0.36;40.05
74334;BME280;62753;40.394;-80.022;2022-12-19T10:27:36;98147.40;;;-0.50;40.99
74334;BME280;62753;40.394;-80.022;2022-12-19T10:30:01;98148.88;;;-0.69;40.84
74334;BME280;62753;40.394;-80.022;2022-12-19T10:32:26;98153.16;;;-0.21;40.66
74334;BME280;62753;40.394;-80.022;2022-12-19T10:34:46;98156.24;;;0.34;39.21
74334;BME280;62753;40.394;-80.022;2022-12-19T10:37:16;98160.28;;;1.93;37.24
74334;BME280;62753;40.394;-80.022;2022-12-19T10:39:48;98169.56;;;0.82;37.84
74334;BME280;62753;40.394;-80.022;2022-12-19T10:42:08;98166.90;;;0.10;38.95
74334;BME280;62753;40.394;-80.022;2022-12-19T10:44:29;98170.59;;;0.35;39.03
74334;BME280;62753;40.394;-80.022;2022-12-19T10:46:53;98170.50;;;0.06;40.66
74334;BME280;62753;40.394;-80.022;2022-12-19T10:49:20;98181.75;;;-0.25;40.21
74334;BME280;62753;40.394;-80.022;2022-12-19T10:51:53;98191.55;;;-0.78;41.66
74334;BME280;62753;40.394;-80.022;2022-12-19T10:54:09;98195.08;;;-0.85;42.60
74334;BME280;62753;40.394;-80.022;2022-12-19T10:56:35;98193.76;;;-0.14;41.32
74334;BME280;62753;40.394;-80.022;2022-12-19T10:59:01;98195.74;;;-0.64;41.90
74334;BME280;62753;40.394;-80.022;2022-12-19T11:01:27;98198.10;;;-0.50;42.16
74334;BME280;62753;40.394;-80.022;2022-12-19T11:03:53;98198.03;;;-1.06;43.13
74334;BME280;62753;40.394;-80.022;2022-12-19T11:08:42;98199.09;;;-1.12;42.21
74334;BME280;62753;40.394;-80.022;2022-12-19T11:11:12;98204.10;;;-1.36;42.98
74334;BME280;62753;40.394;-80.022;2022-12-19T11:13:39;98204.42;;;-2.04;44.22
74334;BME280;62753;40.394;-80.022;2022-12-19T11:16:00;98201.40;;;-0.50;42.05
74334;BME280;62753;40.394;-80.022;2022-12-19T11:18:32;98202.05;;;-0.61;41.45
74334;BME280;62753;40.394;-80.022;2022-12-19T11:20:56;98204.51;;;-0.83;42.05
74334;BME280;62753;40.394;-80.022;2022-12-19T11:23:15;98199.02;;;-0.09;40.12
74334;BME280;62753;40.394;-80.022;2022-12-19T11:25:41;98209.10;;;0.02;39.99
74334;BME280;62753;40.394;-80.022;2022-12-19T11:28:13;98216.71;;;-1.33;43.03
74334;BME280;62753;40.394;-80.022;2022-12-19T11:30:31;98217.20;;;-0.34;40.99
74334;BME280;62753;40.394;-80.022;2022-12-19T11:33:06;98213.43;;;-0.73;40.52
74334;BME280;62753;40.394;-80.022;2022-12-19T11:35:24;98217.53;;;-0.59;41.20
74334;BME280;62753;40.394;-80.022;2022-12-19T11:37:51;98214.43;;;-0.31;40.99
74334;BME280;62753;40.394;-80.022;2022-12-19T11:40:19;98220.90;;;-0.44;41.03
74334;BME280;62753;40.394;-80.022;2022-12-19T11:42:45;98223.78;;;-0.65;41.03
74334;BME280;62753;40.394;-80.022;2022-12-19T11:45:10;98224.16;;;-0.70;41.07
74334;BME280;62753;40.394;-80.022;2022-12-19T11:47:34;98219.30;;;0.02;39.44
74334;BME280;62753;40.394;-80.022;2022-12-19T11:49:58;98226.43;;;-0.43;40.04
74334;BME280;62753;40.394;-80.022;2022-12-19T11:52:35;98233.91;;;-0.41;40.81
74334;BME280;62753;40.394;-80.022;2022-12-19T11:54:53;98233.21;;;0.06;39.27
74334;BME280;62753;40.394;-80.022;2022-12-19T11:57:11;98237.62;;;-1.25;41.37
74334;BME280;62753;40.394;-80.022;2022-12-19T11:59:37;98240.96;;;-0.81;41.59
74334;BME280;62753;40.394;-80.022;2022-12-19T12:02:18;98249.39;;;-0.86;41.01
74334;BME280;62753;40.394;-80.022;2022-12-19T12:04:43;98252.08;;;-1.12;40.66
74334;BME280;62753;40.394;-80.022;2022-12-19T12:06:55;98253.24;;;-0.69;40.57
74334;BME280;62753;40.394;-80.022;2022-12-19T12:09:25;98253.66;;;-0.73;41.05
74334;BME280;62753;40.394;-80.022;2022-12-19T12:11:48;98257.63;;;-0.88;41.85
74334;BME280;62753;40.394;-80.022;2022-12-19T12:14:15;98260.51;;;-1.57;43.05
74334;BME280;62753;40.394;-80.022;2022-12-19T12:16:39;98270.02;;;-2.19;44.35
74334;BME280;62753;40.394;-80.022;2022-12-19T12:19:04;98275.13;;;-1.83;44.43
74334;BME280;62753;40.394;-80.022;2022-12-19T12:21:26;98279.37;;;-1.49;43.84
74334;BME280;62753;40.394;-80.022;2022-12-19T12:24:00;98271.73;;;-1.25;41.62
74334;BME280;62753;40.394;-80.022;2022-12-19T12:26:21;98275.92;;;-2.12;43.84
74334;BME280;62753;40.394;-80.022;2022-12-19T12:28:53;98273.87;;;-1.08;41.77
74334;BME280;62753;40.394;-80.022;2022-12-19T12:31:13;98278.95;;;-0.26;40.82
74334;BME280;62753;40.394;-80.022;2022-12-19T12:33:36;98281.16;;;-0.76;40.62
74334;BME280;62753;40.394;-80.022;2022-12-19T12:35:59;98281.73;;;-0.59;40.46
74334;BME280;62753;40.394;-80.022;2022-12-19T12:38:34;98285.05;;;-0.27;39.46
74334;BME280;62753;40.394;-80.022;2022-12-19T12:40:53;98287.06;;;-1.55;41.24
74334;BME280;62753;40.394;-80.022;2022-12-19T12:43:25;98294.27;;;-1.90;43.12